createdAt,value
2023-01-22T00:01:25.642Z,97302.69
2023-01-22T00:03:54.891Z,97304.19
2023-01-22T00:06:21.956Z,97301.69
2023-01-22T00:08:48.306Z,97307.06
2023-01-22T00:11:16.152Z,97309.91
2023-01-22T00:13:42.714Z,97315.63
2023-01-22T00:16:10.346Z,97315.25
2023-01-22T00:18:36.689Z,97316.47
2023-01-22T00:21:03.028Z,97310.44
2023-01-22T00:23:29.435Z,97324.56
2023-01-22T00:26:05.125Z,97318.75
2023-01-22T00:28:31.534Z,97314.81
2023-01-22T00:30:58.699Z,97321.44
2023-01-22T00:33:25.060Z,97321.16
2023-01-22T00:35:51.420Z,97321.16
2023-01-22T00:38:18.900Z,97308.72
2023-01-22T00:40:45.239Z,97316.16
2023-01-22T00:43:11.567Z,97321.16
2023-01-22T00:45:45.329Z,97324.03
2023-01-22T00:48:11.661Z,97326.94
2023-01-22T00:50:37.989Z,97322.63
2023-01-22T00:53:04.417Z,97325.66
2023-01-22T00:55:31.072Z,97322.81
2023-01-22T00:57:57.381Z,97326.31
2023-01-22T01:00:23.757Z,97321.22
2023-01-22T01:03:08.971Z,97323.25
2023-01-22T01:05:35.439Z,97326.94
2023-01-22T01:08:06.041Z,97326.94
2023-01-22T01:10:32.531Z,97323.72
2023-01-22T01:12:58.892Z,97324.03
2023-01-22T01:15:29.473Z,97327.78
2023-01-22T01:17:55.843Z,97325.59
2023-01-22T01:20:22.358Z,97327.16
2023-01-22T01:22:48.694Z,97334.53
2023-01-22T01:25:15.032Z,97332.50
2023-01-22T01:27:41.423Z,97331.66
2023-01-22T01:30:08.124Z,97327.31
2023-01-22T01:32:34.509Z,97332.66
2023-01-22T01:35:02.017Z,97333.81
2023-01-22T01:37:28.335Z,97334.34
2023-01-22T01:39:54.694Z,97336.72
2023-01-22T01:42:23.379Z,97337.09
2023-01-22T01:45:09.630Z,97339.59
2023-01-22T01:47:38.121Z,97351.31
2023-01-22T01:50:05.039Z,97355.28
2023-01-22T01:52:34.474Z,97358.13
2023-01-22T01:55:00.973Z,97349.16
2023-01-22T01:57:29.062Z,97352.22
2023-01-22T01:59:56.349Z,97356.09
2023-01-22T02:02:22.987Z,97345.31
2023-01-22T02:04:50.863Z,97350.94
2023-01-22T02:07:17.653Z,97350.19
2023-01-22T02:09:43.980Z,97356.13
2023-01-22T02:12:11.457Z,97350.78
2023-01-22T02:14:39.987Z,97353.06
2023-01-22T02:17:14.540Z,97353.06
2023-01-22T02:19:41.325Z,97350.38
2023-01-22T02:22:25.306Z,97349.38
2023-01-22T02:24:51.656Z,97351.22
2023-01-22T02:27:18.025Z,97360.53
2023-01-22T02:29:44.617Z,97361.28
2023-01-22T02:32:11.620Z,97363.47
2023-01-22T02:34:38.206Z,97363.00
2023-01-22T02:37:04.672Z,97358.84
2023-01-22T02:39:31.145Z,97363.59
2023-01-22T02:41:58.106Z,97361.63
2023-01-22T02:44:24.427Z,97354.53
2023-01-22T02:46:50.769Z,97365.88
2023-01-22T02:49:17.104Z,97365.03
2023-01-22T02:51:44.425Z,97367.72
2023-01-22T02:54:10.754Z,97372.53
2023-01-22T02:56:37.098Z,97366.25
2023-01-22T02:59:04.411Z,97367.63
2023-01-22T03:01:31.044Z,97360.81
2023-01-22T03:03:59.052Z,97362.75
2023-01-22T03:06:27.231Z,97361.91
2023-01-22T03:08:55.355Z,97361.66
2023-01-22T03:11:21.770Z,97367.72
2023-01-22T03:14:06.793Z,97371.78
2023-01-22T03:16:51.972Z,97372.53
2023-01-22T03:19:37.621Z,97376.13
2023-01-22T03:22:03.967Z,97380.63
2023-01-22T03:24:30.297Z,97378.63
2023-01-22T03:26:56.621Z,97376.31
2023-01-22T03:29:22.963Z,97380.75
2023-01-22T03:31:49.371Z,97377.06
2023-01-22T03:34:17.729Z,97376.22
2023-01-22T03:36:44.375Z,97371.22
2023-01-22T03:39:11.136Z,97373.63
2023-01-22T03:41:37.676Z,97373.91
2023-01-22T03:44:04.439Z,97383.41
2023-01-22T03:46:31.167Z,97384.06
2023-01-22T03:48:57.616Z,97389.31
2023-01-22T03:51:24.435Z,97383.22
2023-01-22T03:53:55.862Z,97388.84
2023-01-22T03:56:23.195Z,97390.78
2023-01-22T03:58:50.049Z,97382.09
2023-01-22T04:01:18.619Z,97389.03
2023-01-22T04:03:45.074Z,97386.81
2023-01-22T04:06:12.139Z,97389.31
2023-01-22T04:08:39.697Z,97393.91
2023-01-22T04:11:06.530Z,97386.09
2023-01-22T04:13:33.785Z,97396.66
2023-01-22T04:16:00.442Z,97399.94
2023-01-22T04:18:26.875Z,97395.69
2023-01-22T04:21:03.194Z,97392.44
2023-01-22T04:23:29.581Z,97392.81
2023-01-22T04:25:55.941Z,97397.59
2023-01-22T04:28:22.309Z,97399.75
2023-01-22T04:30:50.269Z,97400.75
2023-01-22T04:33:16.682Z,97394.75
2023-01-22T04:35:43.123Z,97406.09
2023-01-22T04:38:11.767Z,97400.38
2023-01-22T04:40:38.157Z,97401.09
2023-01-22T04:43:05.402Z,97401.94
2023-01-22T04:45:31.966Z,97408.84
2023-01-22T04:47:58.586Z,97406.56
2023-01-22T04:50:26.725Z,97411.28
2023-01-22T04:52:54.008Z,97406.81
2023-01-22T04:55:20.813Z,97410.25
2023-01-22T04:57:47.262Z,97414.31
2023-01-22T05:00:14.237Z,97410.09
2023-01-22T05:02:40.649Z,97408.50
2023-01-22T05:05:07.846Z,97411.66
2023-01-22T05:07:34.440Z,97417.63
2023-01-22T05:10:00.880Z,97418.47
2023-01-22T05:12:27.227Z,97420.69
2023-01-22T05:14:53.564Z,97418.56
2023-01-22T05:17:21.110Z,97418.84
2023-01-22T05:19:47.426Z,97421.53
2023-01-22T05:22:13.821Z,97419.88
2023-01-22T05:24:40.253Z,97425.13
2023-01-22T05:27:06.585Z,97424.09
2023-01-22T05:29:32.946Z,97427.50
2023-01-22T05:31:59.548Z,97423.09
2023-01-22T05:34:26.870Z,97428.88
2023-01-22T05:36:53.273Z,97433.41
2023-01-22T05:39:20.104Z,97431.94
2023-01-22T05:41:47.403Z,97437.09
2023-01-22T05:44:14.250Z,97431.00
2023-01-22T05:46:40.667Z,97439.31
2023-01-22T05:49:08.103Z,97436.34
2023-01-22T05:51:34.708Z,97438.94
2023-01-22T05:54:01.127Z,97443.13
2023-01-22T05:56:27.601Z,97440.72
2023-01-22T05:58:53.924Z,97450.56
2023-01-22T06:01:20.238Z,97442.44
2023-01-22T06:03:46.767Z,97448.28
2023-01-22T06:06:14.808Z,97447.34
2023-01-22T06:08:41.524Z,97444.84
2023-01-22T06:11:10.921Z,97453.63
2023-01-22T06:13:37.887Z,97453.53
2023-01-22T06:16:05.917Z,97455.28
2023-01-22T06:18:32.313Z,97449.94
2023-01-22T06:21:03.011Z,97451.41
2023-01-22T06:23:29.702Z,97451.59
2023-01-22T06:25:57.117Z,97455.84
2023-01-22T06:28:23.854Z,97451.69
2023-01-22T06:30:50.775Z,97457.88
2023-01-22T06:33:17.179Z,97461.84
2023-01-22T06:35:43.645Z,97459.06
2023-01-22T06:38:11.987Z,97466.63
2023-01-22T06:40:38.323Z,97464.78
2023-01-22T06:43:05.422Z,97467.28
2023-01-22T06:45:31.778Z,97476.41
2023-01-22T06:47:58.156Z,97482.50
2023-01-22T06:50:25.639Z,97481.56
2023-01-22T06:52:51.961Z,97488.13
2023-01-22T06:55:18.311Z,97485.81
2023-01-22T06:57:45.662Z,97494.66
2023-01-22T07:00:12.236Z,97505.00
2023-01-22T07:02:38.559Z,97504.53
2023-01-22T07:05:05.989Z,97497.53
2023-01-22T07:07:32.383Z,97502.72
2023-01-22T07:09:58.729Z,97509.44
2023-01-22T07:12:25.084Z,97512.00
2023-01-22T07:14:51.419Z,97509.63
2023-01-22T07:17:17.790Z,97517.38
2023-01-22T07:19:44.118Z,97519.06
2023-01-22T07:22:10.593Z,97518.06
2023-01-22T07:24:36.924Z,97522.56
2023-01-22T07:27:03.482Z,97518.16
2023-01-22T07:29:31.841Z,97523.22
2023-01-22T07:31:58.274Z,97521.47
2023-01-22T07:34:25.669Z,97526.47
2023-01-22T07:36:52.076Z,97527.19
2023-01-22T07:39:18.504Z,97520.00
2023-01-22T07:41:46.853Z,97526.91
2023-01-22T07:44:13.329Z,97532.72
2023-01-22T07:46:39.735Z,97531.78
2023-01-22T07:49:07.321Z,97536.16
2023-01-22T07:51:33.728Z,97539.00
2023-01-22T07:54:00.127Z,97551.47
2023-01-22T07:56:26.645Z,97546.41
2023-01-22T07:58:53.024Z,97546.97
2023-01-22T08:01:19.374Z,97545.78
2023-01-22T08:03:57.880Z,97549.81
2023-01-22T08:06:24.355Z,97552.50
2023-01-22T08:08:50.715Z,97560.16
2023-01-22T08:11:17.090Z,97561.84
2023-01-22T08:13:43.608Z,97567.66
2023-01-22T08:16:10.036Z,97568.19
2023-01-22T08:18:36.804Z,97574.94
2023-01-22T08:21:06.901Z,97574.09
2023-01-22T08:23:33.992Z,97567.19
2023-01-22T08:26:01.306Z,97569.13
2023-01-22T08:28:27.733Z,97580.38
2023-01-22T08:30:58.581Z,97580.28
2023-01-22T08:33:25.045Z,97586.22
2023-01-22T08:35:51.686Z,97587.03
2023-01-22T08:38:18.205Z,97583.50
2023-01-22T08:40:48.435Z,97587.56
2023-01-22T08:43:24.136Z,97595.81
2023-01-22T08:45:50.615Z,97593.22
2023-01-22T08:48:17.582Z,97600.06
2023-01-22T08:50:44.063Z,97599.94
2023-01-22T08:53:10.399Z,97604.78
2023-01-22T08:55:36.748Z,97598.59
2023-01-22T08:58:03.163Z,97607.06
2023-01-22T09:00:37.437Z,97611.59
2023-01-22T09:03:03.850Z,97621.09
2023-01-22T09:05:30.199Z,97618.44
2023-01-22T09:08:02.694Z,97614.09
2023-01-22T09:10:29.040Z,97613.81
2023-01-22T09:12:58.178Z,97611.31
2023-01-22T09:15:27.629Z,97617.41
2023-01-22T09:17:53.981Z,97622.34
2023-01-22T09:20:20.804Z,97619.84
2023-01-22T09:22:48.377Z,97613.28
2023-01-22T09:25:17.001Z,97612.00
2023-01-22T09:27:43.355Z,97613.28
2023-01-22T09:30:10.874Z,97618.66
2023-01-22T09:32:37.291Z,97621.69
2023-01-22T09:35:03.731Z,97626.41
2023-01-22T09:37:30.065Z,97627.69
2023-01-22T09:39:56.544Z,97628.13
2023-01-22T09:42:29.203Z,97631.28
2023-01-22T09:45:00.509Z,97640.25
2023-01-22T09:47:47.553Z,97638.22
2023-01-22T09:50:21.754Z,97641.19
2023-01-22T09:52:50.213Z,97643.09
2023-01-22T09:55:18.588Z,97641.25
2023-01-22T09:57:45.915Z,97642.63
2023-01-22T10:00:20.970Z,97642.97
2023-01-22T10:02:51.260Z,97646.09
2023-01-22T10:05:29.343Z,97645.56
2023-01-22T10:08:04.884Z,97650.22
2023-01-22T10:10:32.806Z,97651.13
2023-01-22T10:13:02.405Z,97650.66
2023-01-22T10:15:34.733Z,97653.88
2023-01-22T10:18:05.812Z,97653.75
2023-01-22T10:20:33.301Z,97654.66
2023-01-22T10:23:16.580Z,97655.56
2023-01-22T10:25:42.911Z,97650.59
2023-01-22T10:28:09.964Z,97658.06
2023-01-22T10:30:44.602Z,97653.44
2023-01-22T10:33:17.921Z,97653.56
2023-01-22T10:35:52.179Z,97655.47
2023-01-22T10:38:29.882Z,97659.84
2023-01-22T10:41:00.228Z,97663.06
2023-01-22T10:43:35.229Z,97660.13
2023-01-22T10:46:06.936Z,97667.06
2023-01-22T10:48:39.522Z,97672.78
2023-01-22T10:51:22.353Z,97665.56
2023-01-22T10:53:57.221Z,97660.47
2023-01-22T10:56:34.265Z,97658.31
2023-01-22T10:59:23.147Z,97661.34
2023-01-22T11:02:18.165Z,97648.69
2023-01-22T11:04:48.445Z,97646.47
2023-01-22T11:07:21.731Z,97649.94
2023-01-22T11:09:55.162Z,97647.41
2023-01-22T11:12:41.206Z,97641.66
2023-01-22T11:15:13.440Z,97648.09
2023-01-22T11:17:45.114Z,97650.81
2023-01-22T11:20:47.910Z,97643.50
2023-01-22T11:23:22.727Z,97657.78
2023-01-22T11:26:19.611Z,97652.41
2023-01-22T11:28:46.026Z,97658.78
2023-01-22T11:31:26.557Z,97661.28
2023-01-22T11:34:07.889Z,97656.00
2023-01-22T11:36:37.485Z,97653.94
2023-01-22T11:39:23.961Z,97654.84
2023-01-22T11:42:01.602Z,97656.63
2023-01-22T11:44:52.807Z,97656.00
2023-01-22T11:47:22.125Z,97649.03
2023-01-22T11:49:59.501Z,97651.28
2023-01-22T11:52:31.819Z,97643.13
2023-01-22T11:55:16.621Z,97644.91
2023-01-22T11:57:44.805Z,97639.75
2023-01-22T12:00:43.529Z,97631.13
2023-01-22T12:03:19.171Z,97629.19
2023-01-22T12:05:56.779Z,97626.75
2023-01-22T12:08:29.319Z,97623.97
2023-01-22T12:11:07.562Z,97630.69
2023-01-22T12:13:53.249Z,97625.63
2023-01-22T12:16:43.607Z,97629.44
2023-01-22T12:19:21.931Z,97621.13
2023-01-22T12:22:06.439Z,97624.47
2023-01-22T12:24:49.553Z,97626.84
2023-01-22T12:27:38.698Z,97626.50
2023-01-22T12:30:09.137Z,97615.56
2023-01-22T12:32:43.674Z,97613.25
2023-01-22T12:35:20.054Z,97618.41
2023-01-22T12:38:12.120Z,97621.22
2023-01-22T12:40:59.106Z,97617.13
2023-01-22T12:43:34.903Z,97619.78
2023-01-22T12:46:02.503Z,97619.97
2023-01-22T12:48:28.855Z,97615.22
2023-01-22T12:50:57.271Z,97610.56
2023-01-22T12:53:30.892Z,97608.78
2023-01-22T12:56:03.102Z,97606.78
2023-01-22T12:58:38.002Z,97607.66
2023-01-22T13:01:13.455Z,97613.88
2023-01-22T13:03:40.744Z,97611.78
2023-01-22T13:06:39.669Z,97604.75
2023-01-22T13:09:07.513Z,97603.50
2023-01-22T13:11:39.171Z,97606.44
2023-01-22T13:14:20.852Z,97611.63
2023-01-22T13:17:06.540Z,97620.34
2023-01-22T13:19:42.038Z,97619.19
2023-01-22T13:22:30.171Z,97621.53
2023-01-22T13:24:57.675Z,97626.56
2023-01-22T13:27:26.346Z,97628.03
2023-01-22T13:30:23.222Z,97634.59
2023-01-22T13:33:10.820Z,97637.06
2023-01-22T13:35:40.283Z,97637.06
2023-01-22T13:38:07.142Z,97638.09
2023-01-22T13:40:46.251Z,97640.38
2023-01-22T13:43:20.716Z,97633.88
2023-01-22T13:45:50.114Z,97633.63
2023-01-22T13:48:17.973Z,97636.84
2023-01-22T13:51:04.737Z,97637.25
2023-01-22T13:53:42.939Z,97635.59
2023-01-22T13:56:22.955Z,97633.94
2023-01-22T13:58:49.858Z,97643.50
2023-01-22T14:01:29.955Z,97643.31
2023-01-22T14:04:00.710Z,97642.97
2023-01-22T14:06:43.114Z,97642.03
2023-01-22T14:09:13.461Z,97650.19
2023-01-22T14:11:49.935Z,97645.97
2023-01-22T14:14:17.687Z,97628.97
2023-01-22T14:16:44.679Z,97644.31
2023-01-22T14:19:11.318Z,97645.97
2023-01-22T14:21:40.352Z,97647.63
2023-01-22T14:24:07.052Z,97637.41
2023-01-22T14:26:33.792Z,97645.38
2023-01-22T14:29:00.156Z,97639.41
2023-01-22T14:31:27.582Z,97648.56
2023-01-22T14:33:59.403Z,97641.81
2023-01-22T14:36:25.850Z,97651.25
2023-01-22T14:38:53.589Z,97652.69
2023-01-22T14:41:26.135Z,97664.97
2023-01-22T14:44:01.608Z,97658.78
2023-01-22T14:46:29.107Z,97667.28
2023-01-22T14:48:55.684Z,97661.81
2023-01-22T14:51:22.080Z,97660.28
2023-01-22T14:53:58.508Z,97669.72
2023-01-22T14:56:25.341Z,97684.69
2023-01-22T14:58:51.721Z,97680.09
2023-01-22T15:01:19.190Z,97688.06
2023-01-22T15:03:45.790Z,97684.72
2023-01-22T15:06:12.147Z,97688.00
2023-01-22T15:08:38.605Z,97698.38
2023-01-22T15:11:06.149Z,97691.91
2023-01-22T15:13:36.810Z,97699.19
2023-01-22T15:16:15.162Z,97693.06
2023-01-22T15:18:41.913Z,97701.78
2023-01-22T15:21:08.284Z,97704.28
2023-01-22T15:23:56.287Z,97702.13
2023-01-22T15:26:24.208Z,97700.28
2023-01-22T15:28:54.740Z,97699.91
2023-01-22T15:31:45.753Z,97695.13
2023-01-22T15:34:17.487Z,97706.69
2023-01-22T15:36:49.974Z,97709.00
2023-01-22T15:39:18.473Z,97706.59
2023-01-22T15:41:45.379Z,97708.56
2023-01-22T15:44:13.280Z,97708.09
2023-01-22T15:46:40.405Z,97713.66
2023-01-22T15:49:18.558Z,97707.47
2023-01-22T15:52:04.141Z,97712.53
2023-01-22T15:55:00.651Z,97708.91
2023-01-22T15:57:45.282Z,97724.66
2023-01-22T16:00:17.289Z,97710.59
2023-01-22T16:02:54.199Z,97715.69
2023-01-22T16:05:22.877Z,97721.78
2023-01-22T16:07:52.293Z,97720.28
2023-01-22T16:10:19.956Z,97721.78
2023-01-22T16:12:48.584Z,97731.97
2023-01-22T16:15:22.276Z,97727.25
2023-01-22T16:17:48.601Z,97731.56
2023-01-22T16:20:43.838Z,97726.94
2023-01-22T16:23:29.310Z,97736.50
2023-01-22T16:25:55.746Z,97733.34
2023-01-22T16:28:22.107Z,97749.69
2023-01-22T16:30:48.936Z,97740.44
2023-01-22T16:33:20.640Z,97738.41
2023-01-22T16:35:46.972Z,97755.81
2023-01-22T16:38:13.377Z,97755.09
2023-01-22T16:40:41.918Z,97750.94
2023-01-22T16:43:08.280Z,97754.06
2023-01-22T16:45:35.346Z,97755.63
2023-01-22T16:48:24.568Z,97762.38
2023-01-22T16:50:51.106Z,97765.69
2023-01-22T16:53:26.554Z,97766.06
2023-01-22T16:55:52.911Z,97769.78
2023-01-22T16:58:32.361Z,97766.25
2023-01-22T17:00:58.858Z,97770.16
2023-01-22T17:03:25.238Z,97766.06
2023-01-22T17:05:55.872Z,97770.25
2023-01-22T17:08:23.295Z,97766.47
2023-01-22T17:11:13.642Z,97766.06
2023-01-22T17:13:39.983Z,97776.91
2023-01-22T17:16:06.652Z,97773.75
2023-01-22T17:18:36.119Z,97778.56
2023-01-22T17:21:06.846Z,97773.84
2023-01-22T17:23:33.347Z,97774.94
2023-01-22T17:25:59.730Z,97775.59
2023-01-22T17:28:26.223Z,97767.56
2023-01-22T17:30:53.750Z,97770.06
2023-01-22T17:33:32.829Z,97776.91
2023-01-22T17:36:22.602Z,97769.78
2023-01-22T17:38:49.136Z,97778.00
2023-01-22T17:41:22.872Z,97790.22
2023-01-22T17:43:52.096Z,97791.69
2023-01-22T17:46:29.878Z,97791.41
2023-01-22T17:49:05.797Z,97792.59
2023-01-22T17:51:44.530Z,97803.97
2023-01-22T17:54:10.918Z,97805.94
2023-01-22T17:56:40.120Z,97810.16
2023-01-22T17:59:07.155Z,97806.25
2023-01-22T18:01:35.116Z,97808.13
2023-01-22T18:04:03.078Z,97812.94
2023-01-22T18:06:29.449Z,97826.63
2023-01-22T18:08:56.020Z,97821.75
2023-01-22T18:11:33.037Z,97823.50
2023-01-22T18:14:00.863Z,97826.72
2023-01-22T18:16:28.769Z,97825.31
2023-01-22T18:18:56.917Z,97831.81
2023-01-22T18:21:23.399Z,97834.66
2023-01-22T18:23:57.187Z,97834.88
2023-01-22T18:26:23.888Z,97841.31
2023-01-22T18:28:52.192Z,97835.13
2023-01-22T18:31:33.389Z,97846.97
2023-01-22T18:34:02.310Z,97847.50
2023-01-22T18:36:30.095Z,97842.09
2023-01-22T18:39:00.695Z,97846.31
2023-01-22T18:41:27.571Z,97844.88
2023-01-22T18:43:56.126Z,97847.13
2023-01-22T18:46:24.590Z,97847.41
2023-01-22T18:48:55.299Z,97843.44
2023-01-22T18:51:21.768Z,97844.53
2023-01-22T18:53:48.316Z,97843.72
2023-01-22T18:56:14.782Z,97849.00
2023-01-22T18:58:44.330Z,97846.50
2023-01-22T19:01:31.155Z,97845.84
2023-01-22T19:04:07.094Z,97848.16
2023-01-22T19:06:36.813Z,97851.13
2023-01-22T19:09:08.260Z,97847.13
2023-01-22T19:11:36.660Z,97843.50
2023-01-22T19:14:23.548Z,97854.88
2023-01-22T19:17:03.680Z,97852.34
2023-01-22T19:19:29.989Z,97861.25
2023-01-22T19:22:08.591Z,97855.34
2023-01-22T19:24:34.911Z,97866.25
2023-01-22T19:27:01.371Z,97866.44
2023-01-22T19:29:59.357Z,97871.78
2023-01-22T19:32:37.965Z,97870.25
2023-01-22T19:35:07.464Z,97870.84
2023-01-22T19:37:41.744Z,97877.44
2023-01-22T19:40:09.032Z,97878.53
2023-01-22T19:42:35.501Z,97879.28
2023-01-22T19:45:01.878Z,97886.78
2023-01-22T19:47:30.298Z,97882.44
2023-01-22T19:49:56.623Z,97889.81
2023-01-22T19:52:23.039Z,97886.13
2023-01-22T19:54:50.554Z,97886.31
2023-01-22T19:57:16.985Z,97890.91
2023-01-22T19:59:43.439Z,97885.66
2023-01-22T20:02:18.483Z,97889.53
2023-01-22T20:04:46.043Z,97886.13
2023-01-22T20:07:12.884Z,97889.63
2023-01-22T20:09:55.568Z,97894.78
2023-01-22T20:12:21.921Z,97891.63
2023-01-22T20:14:49.261Z,97893.91
2023-01-22T20:17:16.699Z,97897.31
2023-01-22T20:19:43.110Z,97900.50
2023-01-22T20:22:10.834Z,97906.84
2023-01-22T20:24:39.691Z,97906.84
2023-01-22T20:27:06.643Z,97907.56
2023-01-22T20:29:33.134Z,97911.66
2023-01-22T20:32:09.822Z,97911.81
2023-01-22T20:35:17.224Z,97909.03
2023-01-22T20:37:44.138Z,97922.69
2023-01-22T20:40:18.436Z,97932.13
2023-01-22T20:42:44.764Z,97928.13
2023-01-22T20:45:17.573Z,97933.88
2023-01-22T20:47:44.968Z,97927.53
2023-01-22T20:50:24.677Z,97936.03
2023-01-22T20:52:53.434Z,97938.03
2023-01-22T20:55:26.236Z,97945.44
2023-01-22T20:57:52.659Z,97944.06
2023-01-22T21:00:19.175Z,97947.56
2023-01-22T21:02:45.555Z,97953.44
2023-01-22T21:05:11.890Z,97953.59
2023-01-22T21:07:38.256Z,97954.81
2023-01-22T21:10:04.959Z,97955.16
2023-01-22T21:12:31.350Z,97952.91
2023-01-22T21:15:18.111Z,97961.94
2023-01-22T21:17:44.423Z,97951.97
2023-01-22T21:20:11.714Z,97959.59
2023-01-22T21:22:38.126Z,97960.41
2023-01-22T21:25:04.712Z,97968.59
2023-01-22T21:27:31.043Z,97962.34
2023-01-22T21:29:57.870Z,97967.53
2023-01-22T21:32:30.596Z,97972.94
2023-01-22T21:34:57.139Z,97962.34
2023-01-22T21:37:23.461Z,97969.34
2023-01-22T21:39:49.787Z,97972.63
2023-01-22T21:42:34.968Z,97976.63
2023-01-22T21:45:20.344Z,97969.84
2023-01-22T21:47:46.784Z,97980.03
2023-01-22T21:50:21.284Z,97983.38
2023-01-22T21:52:51.736Z,97976.81
2023-01-22T21:55:18.219Z,97975.03
2023-01-22T21:57:44.669Z,97980.91
2023-01-22T22:00:11.298Z,97981.78
2023-01-22T22:02:37.673Z,97989.31
2023-01-22T22:05:11.018Z,97980.31
2023-01-22T22:07:37.334Z,97987.97
2023-01-22T22:10:04.291Z,97986.88
2023-01-22T22:12:33.357Z,97987.81
2023-01-22T22:14:59.689Z,97985.72
2023-01-22T22:17:26.090Z,97991.41
2023-01-22T22:20:08.402Z,97981.97
2023-01-22T22:22:34.744Z,97987.66
2023-01-22T22:25:03.535Z,97985.31
2023-01-22T22:27:29.929Z,97988.06
2023-01-22T22:29:56.317Z,97986.66
2023-01-22T22:32:22.740Z,97991.13
2023-01-22T22:34:49.430Z,97993.72
2023-01-22T22:37:16.447Z,98001.50
2023-01-22T22:39:43.006Z,97998.91
2023-01-22T22:42:09.458Z,98000.41
2023-01-22T22:44:37.434Z,98003.84
2023-01-22T22:47:04.794Z,98000.00
2023-01-22T22:49:31.743Z,97998.09
2023-01-22T22:51:58.229Z,97997.44
2023-01-22T22:54:26.043Z,97994.50
2023-01-22T22:56:52.796Z,97993.66
2023-01-22T22:59:21.953Z,97995.09
2023-01-22T23:02:09.224Z,97988.41
2023-01-22T23:04:36.024Z,97990.66
2023-01-22T23:07:11.500Z,97994.50
2023-01-22T23:09:42.106Z,97998.50
2023-01-22T23:12:08.613Z,97999.91
2023-01-22T23:14:36.376Z,97994.00
2023-01-22T23:17:04.681Z,98000.34
2023-01-22T23:19:45.016Z,98003.91
2023-01-22T23:22:11.409Z,98002.84
2023-01-22T23:24:38.816Z,98007.88
2023-01-22T23:27:05.150Z,98004.84
2023-01-22T23:29:32.534Z,98001.53
2023-01-22T23:31:58.901Z,98012.75
2023-01-22T23:34:25.308Z,98014.47
2023-01-22T23:36:51.764Z,98019.00
2023-01-22T23:39:19.154Z,98014.28
2023-01-22T23:41:45.532Z,98017.78
2023-01-22T23:44:11.923Z,98017.72
2023-01-22T23:46:38.803Z,98013.13
2023-01-22T23:49:05.567Z,98024.53
2023-01-22T23:51:31.929Z,98034.47
2023-01-22T23:53:58.373Z,98038.63
2023-01-22T23:56:25.930Z,98034.03
2023-01-22T23:59:26.554Z,98037.41
